Terminal Aerodrome Forecast
Issued by NWS Kansas City/Pleasant Hill, MO

Home | Current Version | Previous Version | Text Only | Print | Product List | Glossary On
Versions: 1 2 3 4 5 6 7 8 9 10 11 12 13 14
133
FTUS43 KEAX 260520
TAFMCI
TAF
KMCI 260520Z 2606/2706 33005KT P6SM VCSH OVC050
     FM260900 33005KT P6SM -SHRA BKN035
     FM261200 35005KT P6SM -SHRA OVC015
     FM261800 35005KT P6SM VCSH OVC015
     FM262200 35006KT P6SM BKN035=

USA.gov is the U.S. government's official web portal to all federal, state and local government web resources and services.